الصفحة الرئيسية
METAR-TAF:

METAR-TAF

مطار :

Bisbee Douglas International Airport

Douglas / Bisbee, أريزونا, الولايات المتحدة

دائرة عرض: 31-28-09N, خط طول: 109-36-13W, ارتفاع: 1266 متر

مراقبة الطقس الحالي

تاريخ ووقت الإصدار 1ساعة و 3 دقيقة قبل الساعة 20:56UTC
ريح 9 عقدة من الجنوب الشرقي تتزايد حتى 15 عقدة
درجة الحرارة 19°درجة مئوية
الرطوبة 32%
ضغط 1019 hPa
الرؤية: 16.1 كم
سماء صافية

METAR: KDUG 182056Z AUTO 14009G15KT 10SM CLR 19/02 A3008 RMK AO2 SLP143 T01940017 58020

زمن: 14:59 (21:59 UTC)

توقعات

تاريخ ووقت الإصدار 4ساعات و 39 دقيقة قبل الساعة 17:20UTC
التوقعات صالحة من18 الساعة 18 UTC إلى 19 الساعة 18 UTC
ريح 10 عقدة من الشرق/الجنوب الشرقي تتزايد حتى 17 عقدة
الرؤية: 10 كم
غيوم متفرقة على ارتفاع 8000 قدم
من 19 الساعة 0300 UTC
ريح 9 عقدة من الشرق
الرؤية: 10 كم
سماء صافية

TAF: KDUG 181720Z 1818/1918 12010G17KT P6SM SCT080 FM190300 08009KT P6SM SKC

أرصاد الطقس والتوقعات من أكثر من 4000 مطار (تقارير الطقس للمطار METAR والتنبؤ بالطقس بالمطارTAF).

المحطات المتاحة هي النقط الصفراء والحمراء على الخريطة.

حرك المؤشر فوق النقطة لمعرفة اسم المحطة.

ثم انقر لمعرفة أرصاد وتوقعات الطقس.

لتغيير الخارطة: اضغط على الأزرار الخضراء مع رمز الصليب الأسود للتكبير. على الزر الأخضر مع شرطة للتصغير، أو على الأسهم الخضراء للخرائط المجاورة.


METAR-TAF: